sensor_id;sensor_type;location;lat;lon;timestamp;P1;durP1;ratioP1;P2;durP2;ratioP2
4186;SDS011;2107;52.306;10.484;2022-08-21T00:01:33;0.40;;;0.40;;
4186;SDS011;2107;52.306;10.484;2022-08-21T00:04:04;0.30;;;0.30;;
4186;SDS011;2107;52.306;10.484;2022-08-21T00:06:31;0.30;;;0.30;;
4186;SDS011;2107;52.306;10.484;2022-08-21T00:08:59;0.30;;;0.30;;
4186;SDS011;2107;52.306;10.484;2022-08-21T00:11:26;0.30;;;0.30;;
4186;SDS011;2107;52.306;10.484;2022-08-21T00:13:54;0.30;;;0.30;;
4186;SDS011;2107;52.306;10.484;2022-08-21T00:16:21;0.30;;;0.30;;
4186;SDS011;2107;52.306;10.484;2022-08-21T00:18:48;0.30;;;0.30;;
4186;SDS011;2107;52.306;10.484;2022-08-21T00:21:16;0.40;;;0.40;;
4186;SDS011;2107;52.306;10.484;2022-08-21T00:23:43;0.30;;;0.30;;
4186;SDS011;2107;52.306;10.484;2022-08-21T00:26:10;0.40;;;0.40;;
4186;SDS011;2107;52.306;10.484;2022-08-21T00:28:37;0.30;;;0.30;;
4186;SDS011;2107;52.306;10.484;2022-08-21T00:31:05;0.30;;;0.30;;
4186;SDS011;2107;52.306;10.484;2022-08-21T00:33:32;0.50;;;0.50;;
4186;SDS011;2107;52.306;10.484;2022-08-21T00:35:59;0.40;;;0.40;;
4186;SDS011;2107;52.306;10.484;2022-08-21T00:38:26;0.40;;;0.40;;
4186;SDS011;2107;52.306;10.484;2022-08-21T00:40:54;0.40;;;0.40;;
4186;SDS011;2107;52.306;10.484;2022-08-21T00:43:24;0.40;;;0.40;;
4186;SDS011;2107;52.306;10.484;2022-08-21T00:45:54;0.40;;;0.40;;
4186;SDS011;2107;52.306;10.484;2022-08-21T00:48:22;0.40;;;0.40;;
4186;SDS011;2107;52.306;10.484;2022-08-21T00:50:52;0.40;;;0.40;;
4186;SDS011;2107;52.306;10.484;2022-08-21T00:53:21;0.40;;;0.40;;
4186;SDS011;2107;52.306;10.484;2022-08-21T00:55:49;0.40;;;0.40;;
4186;SDS011;2107;52.306;10.484;2022-08-21T00:58:17;0.30;;;0.30;;
4186;SDS011;2107;52.306;10.484;2022-08-21T01:00:46;0.30;;;0.30;;
4186;SDS011;2107;52.306;10.484;2022-08-21T01:03:15;0.30;;;0.30;;
4186;SDS011;2107;52.306;10.484;2022-08-21T01:05:45;0.30;;;0.30;;
4186;SDS011;2107;52.306;10.484;2022-08-21T01:08:12;0.20;;;0.20;;
4186;SDS011;2107;52.306;10.484;2022-08-21T01:10:41;0.20;;;0.20;;
4186;SDS011;2107;52.306;10.484;2022-08-21T01:13:10;0.30;;;0.30;;
4186;SDS011;2107;52.306;10.484;2022-08-21T01:15:41;0.20;;;0.20;;
4186;SDS011;2107;52.306;10.484;2022-08-21T01:18:11;0.20;;;0.20;;
4186;SDS011;2107;52.306;10.484;2022-08-21T01:20:41;0.20;;;0.20;;
4186;SDS011;2107;52.306;10.484;2022-08-21T01:23:12;0.20;;;0.20;;
4186;SDS011;2107;52.306;10.484;2022-08-21T01:25:39;0.20;;;0.20;;
4186;SDS011;2107;52.306;10.484;2022-08-21T01:28:07;0.20;;;0.20;;
4186;SDS011;2107;52.306;10.484;2022-08-21T01:30:38;0.20;;;0.20;;
4186;SDS011;2107;52.306;10.484;2022-08-21T01:33:06;0.20;;;0.20;;
4186;SDS011;2107;52.306;10.484;2022-08-21T01:35:33;0.20;;;0.20;;
4186;SDS011;2107;52.306;10.484;2022-08-21T01:38:01;0.20;;;0.20;;
4186;SDS011;2107;52.306;10.484;2022-08-21T01:40:29;0.20;;;0.20;;
4186;SDS011;2107;52.306;10.484;2022-08-21T01:42:56;0.20;;;0.20;;
4186;SDS011;2107;52.306;10.484;2022-08-21T01:45:23;0.20;;;0.20;;
4186;SDS011;2107;52.306;10.484;2022-08-21T01:47:50;0.10;;;0.10;;
4186;SDS011;2107;52.306;10.484;2022-08-21T01:50:18;0.10;;;0.10;;
4186;SDS011;2107;52.306;10.484;2022-08-21T01:52:46;0.10;;;0.10;;
4186;SDS011;2107;52.306;10.484;2022-08-21T01:55:14;0.10;;;0.10;;
4186;SDS011;2107;52.306;10.484;2022-08-21T01:57:44;0.10;;;0.10;;
4186;SDS011;2107;52.306;10.484;2022-08-21T02:00:13;0.13;;;0.13;;
4186;SDS011;2107;52.306;10.484;2022-08-21T02:02:41;0.10;;;0.10;;
4186;SDS011;2107;52.306;10.484;2022-08-21T02:05:09;0.20;;;0.20;;
4186;SDS011;2107;52.306;10.484;2022-08-21T02:07:38;0.10;;;0.10;;
4186;SDS011;2107;52.306;10.484;2022-08-21T02:10:06;0.10;;;0.10;;
4186;SDS011;2107;52.306;10.484;2022-08-21T02:12:35;0.10;;;0.10;;
4186;SDS011;2107;52.306;10.484;2022-08-21T02:15:04;0.10;;;0.10;;
4186;SDS011;2107;52.306;10.484;2022-08-21T02:17:36;0.10;;;0.10;;
4186;SDS011;2107;52.306;10.484;2022-08-21T02:20:08;0.10;;;0.10;;
4186;SDS011;2107;52.306;10.484;2022-08-21T02:22:36;0.10;;;0.10;;
4186;SDS011;2107;52.306;10.484;2022-08-21T02:25:04;0.10;;;0.10;;
4186;SDS011;2107;52.306;10.484;2022-08-21T02:27:36;0.10;;;0.10;;
4186;SDS011;2107;52.306;10.484;2022-08-21T02:30:07;0.00;;;0.00;;
4186;SDS011;2107;52.306;10.484;2022-08-21T02:32:36;0.00;;;0.00;;
4186;SDS011;2107;52.306;10.484;2022-08-21T02:35:03;0.10;;;0.10;;
4186;SDS011;2107;52.306;10.484;2022-08-21T02:37:31;0.10;;;0.10;;
4186;SDS011;2107;52.306;10.484;2022-08-21T02:39:58;0.10;;;0.10;;
4186;SDS011;2107;52.306;10.484;2022-08-21T02:42:26;0.00;;;0.00;;
4186;SDS011;2107;52.306;10.484;2022-08-21T02:44:53;0.10;;;0.10;;
4186;SDS011;2107;52.306;10.484;2022-08-21T02:47:21;0.07;;;0.07;;
4186;SDS011;2107;52.306;10.484;2022-08-21T02:49:48;0.10;;;0.10;;
4186;SDS011;2107;52.306;10.484;2022-08-21T02:52:15;0.00;;;0.00;;
4186;SDS011;2107;52.306;10.484;2022-08-21T02:54:42;0.00;;;0.00;;
4186;SDS011;2107;52.306;10.484;2022-08-21T02:57:09;0.00;;;0.00;;
4186;SDS011;2107;52.306;10.484;2022-08-21T02:59:36;0.00;;;0.00;;
4186;SDS011;2107;52.306;10.484;2022-08-21T03:02:03;0.00;;;0.00;;
4186;SDS011;2107;52.306;10.484;2022-08-21T03:04:31;0.00;;;0.00;;
4186;SDS011;2107;52.306;10.484;2022-08-21T03:06:59;0.00;;;0.00;;
4186;SDS011;2107;52.306;10.484;2022-08-21T03:09:26;0.00;;;0.00;;
4186;SDS011;2107;52.306;10.484;2022-08-21T03:11:52;0.00;;;0.00;;
4186;SDS011;2107;52.306;10.484;2022-08-21T03:14:19;0.00;;;0.00;;
4186;SDS011;2107;52.306;10.484;2022-08-21T03:16:46;0.00;;;0.00;;
4186;SDS011;2107;52.306;10.484;2022-08-21T03:19:13;0.00;;;0.00;;
4186;SDS011;2107;52.306;10.484;2022-08-21T03:21:41;0.00;;;0.00;;
4186;SDS011;2107;52.306;10.484;2022-08-21T03:24:08;0.00;;;0.00;;
4186;SDS011;2107;52.306;10.484;2022-08-21T03:26:35;0.00;;;0.00;;
4186;SDS011;2107;52.306;10.484;2022-08-21T03:29:02;0.00;;;0.00;;
4186;SDS011;2107;52.306;10.484;2022-08-21T03:31:30;0.00;;;0.00;;
4186;SDS011;2107;52.306;10.484;2022-08-21T03:33:57;0.00;;;0.00;;
4186;SDS011;2107;52.306;10.484;2022-08-21T03:36:24;0.00;;;0.00;;
4186;SDS011;2107;52.306;10.484;2022-08-21T03:38:53;0.00;;;0.00;;
4186;SDS011;2107;52.306;10.484;2022-08-21T03:41:20;0.00;;;0.00;;
4186;SDS011;2107;52.306;10.484;2022-08-21T03:43:47;0.00;;;0.00;;
4186;SDS011;2107;52.306;10.484;2022-08-21T03:46:14;0.00;;;0.00;;
4186;SDS011;2107;52.306;10.484;2022-08-21T03:48:41;0.00;;;0.00;;
4186;SDS011;2107;52.306;10.484;2022-08-21T03:51:08;0.00;;;0.00;;
4186;SDS011;2107;52.306;10.484;2022-08-21T03:53:35;0.00;;;0.00;;
4186;SDS011;2107;52.306;10.484;2022-08-21T03:56:03;0.00;;;0.00;;
4186;SDS011;2107;52.306;10.484;2022-08-21T03:58:31;0.00;;;0.00;;
4186;SDS011;2107;52.306;10.484;2022-08-21T04:00:59;0.00;;;0.00;;
4186;SDS011;2107;52.306;10.484;2022-08-21T04:03:27;0.00;;;0.00;;
4186;SDS011;2107;52.306;10.484;2022-08-21T04:05:55;0.00;;;0.00;;
4186;SDS011;2107;52.306;10.484;2022-08-21T04:08:21;0.00;;;0.00;;
4186;SDS011;2107;52.306;10.484;2022-08-21T04:10:49;0.00;;;0.00;;
4186;SDS011;2107;52.306;10.484;2022-08-21T04:13:19;0.00;;;0.00;;
4186;SDS011;2107;52.306;10.484;2022-08-21T04:15:47;0.00;;;0.00;;
4186;SDS011;2107;52.306;10.484;2022-08-21T04:18:14;0.00;;;0.00;;
4186;SDS011;2107;52.306;10.484;2022-08-21T04:20:41;0.00;;;0.00;;
4186;SDS011;2107;52.306;10.484;2022-08-21T04:23:09;0.00;;;0.00;;
4186;SDS011;2107;52.306;10.484;2022-08-21T04:25:36;0.00;;;0.00;;
4186;SDS011;2107;52.306;10.484;2022-08-21T04:28:03;0.00;;;0.00;;
4186;SDS011;2107;52.306;10.484;2022-08-21T04:30:32;0.00;;;0.00;;
4186;SDS011;2107;52.306;10.484;2022-08-21T04:32:59;0.00;;;0.00;;
4186;SDS011;2107;52.306;10.484;2022-08-21T04:35:26;0.00;;;0.00;;
4186;SDS011;2107;52.306;10.484;2022-08-21T04:37:55;0.00;;;0.00;;
4186;SDS011;2107;52.306;10.484;2022-08-21T04:40:22;0.00;;;0.00;;
4186;SDS011;2107;52.306;10.484;2022-08-21T04:42:52;0.00;;;0.00;;
4186;SDS011;2107;52.306;10.484;2022-08-21T04:45:23;0.00;;;0.00;;
4186;SDS011;2107;52.306;10.484;2022-08-21T04:47:53;0.00;;;0.00;;
4186;SDS011;2107;52.306;10.484;2022-08-21T04:50:21;0.00;;;0.00;;
4186;SDS011;2107;52.306;10.484;2022-08-21T04:52:50;0.00;;;0.00;;
4186;SDS011;2107;52.306;10.484;2022-08-21T04:55:18;0.00;;;0.00;;
4186;SDS011;2107;52.306;10.484;2022-08-21T04:57:46;0.00;;;0.00;;
4186;SDS011;2107;52.306;10.484;2022-08-21T05:00:16;0.00;;;0.00;;
4186;SDS011;2107;52.306;10.484;2022-08-21T05:02:44;0.00;;;0.00;;
4186;SDS011;2107;52.306;10.484;2022-08-21T05:05:13;0.10;;;0.10;;
4186;SDS011;2107;52.306;10.484;2022-08-21T05:07:41;0.33;;;0.33;;
4186;SDS011;2107;52.306;10.484;2022-08-21T05:10:10;0.80;;;0.80;;
4186;SDS011;2107;52.306;10.484;2022-08-21T05:12:39;1.03;;;1.03;;
4186;SDS011;2107;52.306;10.484;2022-08-21T05:15:07;1.30;;;1.30;;
4186;SDS011;2107;52.306;10.484;2022-08-21T05:17:36;1.20;;;1.20;;
4186;SDS011;2107;52.306;10.484;2022-08-21T05:20:04;1.30;;;1.30;;
4186;SDS011;2107;52.306;10.484;2022-08-21T05:22:33;1.80;;;1.80;;
4186;SDS011;2107;52.306;10.484;2022-08-21T05:25:00;1.70;;;1.70;;
4186;SDS011;2107;52.306;10.484;2022-08-21T05:27:27;1.40;;;1.40;;
4186;SDS011;2107;52.306;10.484;2022-08-21T05:29:54;1.37;;;1.37;;
4186;SDS011;2107;52.306;10.484;2022-08-21T05:32:22;1.20;;;1.20;;
4186;SDS011;2107;52.306;10.484;2022-08-21T05:34:49;0.80;;;0.80;;
4186;SDS011;2107;52.306;10.484;2022-08-21T05:37:16;0.80;;;0.80;;
4186;SDS011;2107;52.306;10.484;2022-08-21T05:39:45;0.50;;;0.50;;
4186;SDS011;2107;52.306;10.484;2022-08-21T05:42:11;0.60;;;0.60;;
4186;SDS011;2107;52.306;10.484;2022-08-21T05:44:38;0.67;;;0.67;;
4186;SDS011;2107;52.306;10.484;2022-08-21T05:47:06;1.00;;;1.00;;
4186;SDS011;2107;52.306;10.484;2022-08-21T05:49:35;1.10;;;1.10;;
4186;SDS011;2107;52.306;10.484;2022-08-21T05:52:02;0.90;;;0.90;;
4186;SDS011;2107;52.306;10.484;2022-08-21T05:54:30;0.80;;;0.80;;
4186;SDS011;2107;52.306;10.484;2022-08-21T05:56:59;0.80;;;0.80;;
4186;SDS011;2107;52.306;10.484;2022-08-21T05:59:26;0.70;;;0.70;;
4186;SDS011;2107;52.306;10.484;2022-08-21T06:01:53;0.70;;;0.70;;
4186;SDS011;2107;52.306;10.484;2022-08-21T06:04:20;1.10;;;1.10;;
4186;SDS011;2107;52.306;10.484;2022-08-21T06:06:47;0.70;;;0.70;;
4186;SDS011;2107;52.306;10.484;2022-08-21T06:09:14;0.70;;;0.70;;
4186;SDS011;2107;52.306;10.484;2022-08-21T06:11:41;0.70;;;0.70;;
4186;SDS011;2107;52.306;10.484;2022-08-21T06:14:09;0.53;;;0.53;;
4186;SDS011;2107;52.306;10.484;2022-08-21T06:16:39;0.60;;;0.60;;
4186;SDS011;2107;52.306;10.484;2022-08-21T06:19:06;0.60;;;0.60;;
4186;SDS011;2107;52.306;10.484;2022-08-21T06:21:33;0.50;;;0.50;;
4186;SDS011;2107;52.306;10.484;2022-08-21T06:24:00;0.50;;;0.50;;
4186;SDS011;2107;52.306;10.484;2022-08-21T06:26:27;0.70;;;0.70;;
4186;SDS011;2107;52.306;10.484;2022-08-21T06:28:54;0.60;;;0.60;;
4186;SDS011;2107;52.306;10.484;2022-08-21T06:31:23;0.50;;;0.50;;
4186;SDS011;2107;52.306;10.484;2022-08-21T06:33:52;0.50;;;0.50;;
4186;SDS011;2107;52.306;10.484;2022-08-21T06:36:19;0.60;;;0.60;;
4186;SDS011;2107;52.306;10.484;2022-08-21T06:38:46;0.60;;;0.60;;
4186;SDS011;2107;52.306;10.484;2022-08-21T06:41:13;0.50;;;0.50;;
4186;SDS011;2107;52.306;10.484;2022-08-21T06:43:40;0.40;;;0.40;;
4186;SDS011;2107;52.306;10.484;2022-08-21T06:46:07;0.50;;;0.50;;
4186;SDS011;2107;52.306;10.484;2022-08-21T06:48:36;0.43;;;0.43;;
4186;SDS011;2107;52.306;10.484;2022-08-21T06:51:03;0.50;;;0.50;;
4186;SDS011;2107;52.306;10.484;2022-08-21T06:53:30;0.60;;;0.60;;
4186;SDS011;2107;52.306;10.484;2022-08-21T06:55:57;0.60;;;0.60;;
4186;SDS011;2107;52.306;10.484;2022-08-21T06:58:24;0.40;;;0.40;;
4186;SDS011;2107;52.306;10.484;2022-08-21T07:00:51;0.57;;;0.57;;
4186;SDS011;2107;52.306;10.484;2022-08-21T07:03:20;0.40;;;0.40;;
4186;SDS011;2107;52.306;10.484;2022-08-21T07:05:50;0.60;;;0.60;;
4186;SDS011;2107;52.306;10.484;2022-08-21T07:08:17;0.60;;;0.60;;
4186;SDS011;2107;52.306;10.484;2022-08-21T07:10:44;0.40;;;0.40;;
4186;SDS011;2107;52.306;10.484;2022-08-21T07:13:11;0.50;;;0.50;;
4186;SDS011;2107;52.306;10.484;2022-08-21T07:15:39;0.30;;;0.30;;
4186;SDS011;2107;52.306;10.484;2022-08-21T07:18:06;0.40;;;0.40;;
4186;SDS011;2107;52.306;10.484;2022-08-21T07:20:33;0.43;;;0.43;;
4186;SDS011;2107;52.306;10.484;2022-08-21T07:23:03;0.40;;;0.40;;
4186;SDS011;2107;52.306;10.484;2022-08-21T07:25:33;0.40;;;0.40;;
4186;SDS011;2107;52.306;10.484;2022-08-21T07:28:00;0.30;;;0.30;;
4186;SDS011;2107;52.306;10.484;2022-08-21T07:30:27;0.33;;;0.33;;
4186;SDS011;2107;52.306;10.484;2022-08-21T07:32:55;0.30;;;0.30;;
4186;SDS011;2107;52.306;10.484;2022-08-21T07:35:22;0.37;;;0.37;;
4186;SDS011;2107;52.306;10.484;2022-08-21T07:37:49;0.30;;;0.30;;
4186;SDS011;2107;52.306;10.484;2022-08-21T07:40:17;0.30;;;0.30;;
4186;SDS011;2107;52.306;10.484;2022-08-21T07:42:45;0.30;;;0.30;;
4186;SDS011;2107;52.306;10.484;2022-08-21T07:45:14;0.30;;;0.30;;
4186;SDS011;2107;52.306;10.484;2022-08-21T07:47:42;0.30;;;0.30;;
4186;SDS011;2107;52.306;10.484;2022-08-21T07:50:09;0.30;;;0.30;;
4186;SDS011;2107;52.306;10.484;2022-08-21T07:52:37;0.20;;;0.20;;
4186;SDS011;2107;52.306;10.484;2022-08-21T07:55:04;0.40;;;0.40;;
4186;SDS011;2107;52.306;10.484;2022-08-21T07:57:34;0.30;;;0.30;;
4186;SDS011;2107;52.306;10.484;2022-08-21T08:00:01;0.30;;;0.30;;
4186;SDS011;2107;52.306;10.484;2022-08-21T08:02:29;0.30;;;0.30;;
4186;SDS011;2107;52.306;10.484;2022-08-21T08:04:58;0.40;;;0.40;;
4186;SDS011;2107;52.306;10.484;2022-08-21T08:07:25;0.30;;;0.30;;
4186;SDS011;2107;52.306;10.484;2022-08-21T08:09:53;0.30;;;0.30;;
4186;SDS011;2107;52.306;10.484;2022-08-21T08:12:19;0.30;;;0.30;;
4186;SDS011;2107;52.306;10.484;2022-08-21T08:14:48;0.40;;;0.40;;
4186;SDS011;2107;52.306;10.484;2022-08-21T08:17:15;0.50;;;0.50;;
4186;SDS011;2107;52.306;10.484;2022-08-21T08:19:44;0.40;;;0.40;;
4186;SDS011;2107;52.306;10.484;2022-08-21T08:22:14;0.40;;;0.40;;
4186;SDS011;2107;52.306;10.484;2022-08-21T08:24:44;0.40;;;0.40;;
4186;SDS011;2107;52.306;10.484;2022-08-21T08:27:11;0.33;;;0.33;;
4186;SDS011;2107;52.306;10.484;2022-08-21T08:29:38;0.30;;;0.30;;
4186;SDS011;2107;52.306;10.484;2022-08-21T08:32:07;0.43;;;0.43;;
4186;SDS011;2107;52.306;10.484;2022-08-21T08:34:34;0.40;;;0.40;;
4186;SDS011;2107;52.306;10.484;2022-08-21T08:37:02;0.37;;;0.37;;
4186;SDS011;2107;52.306;10.484;2022-08-21T08:39:29;0.30;;;0.30;;
4186;SDS011;2107;52.306;10.484;2022-08-21T08:41:59;0.40;;;0.40;;
4186;SDS011;2107;52.306;10.484;2022-08-21T08:44:34;0.40;;;0.40;;
4186;SDS011;2107;52.306;10.484;2022-08-21T08:47:02;0.40;;;0.40;;
4186;SDS011;2107;52.306;10.484;2022-08-21T08:49:34;0.20;;;0.20;;
4186;SDS011;2107;52.306;10.484;2022-08-21T08:52:07;0.30;;;0.30;;
4186;SDS011;2107;52.306;10.484;2022-08-21T08:54:44;0.40;;;0.40;;
4186;SDS011;2107;52.306;10.484;2022-08-21T08:57:17;0.40;;;0.40;;
4186;SDS011;2107;52.306;10.484;2022-08-21T08:59:46;0.30;;;0.30;;
4186;SDS011;2107;52.306;10.484;2022-08-21T09:02:16;0.20;;;0.20;;
4186;SDS011;2107;52.306;10.484;2022-08-21T09:04:45;0.30;;;0.30;;
4186;SDS011;2107;52.306;10.484;2022-08-21T09:07:16;0.30;;;0.30;;
4186;SDS011;2107;52.306;10.484;2022-08-21T09:10:03;0.40;;;0.40;;
4186;SDS011;2107;52.306;10.484;2022-08-21T09:12:39;0.30;;;0.30;;
4186;SDS011;2107;52.306;10.484;2022-08-21T09:15:13;0.40;;;0.40;;
4186;SDS011;2107;52.306;10.484;2022-08-21T09:17:54;0.30;;;0.30;;
4186;SDS011;2107;52.306;10.484;2022-08-21T09:20:44;0.40;;;0.40;;
4186;SDS011;2107;52.306;10.484;2022-08-21T09:23:23;0.30;;;0.30;;
4186;SDS011;2107;52.306;10.484;2022-08-21T09:25:59;0.50;;;0.50;;
4186;SDS011;2107;52.306;10.484;2022-08-21T09:28:33;0.60;;;0.60;;
4186;SDS011;2107;52.306;10.484;2022-08-21T09:31:01;0.60;;;0.60;;
4186;SDS011;2107;52.306;10.484;2022-08-21T09:33:32;0.80;;;0.80;;
4186;SDS011;2107;52.306;10.484;2022-08-21T09:36:00;0.80;;;0.80;;
4186;SDS011;2107;52.306;10.484;2022-08-21T09:38:28;0.70;;;0.70;;
4186;SDS011;2107;52.306;10.484;2022-08-21T09:40:59;0.50;;;0.50;;
4186;SDS011;2107;52.306;10.484;2022-08-21T09:43:29;0.60;;;0.60;;
4186;SDS011;2107;52.306;10.484;2022-08-21T09:46:03;0.50;;;0.50;;
4186;SDS011;2107;52.306;10.484;2022-08-21T09:48:38;0.30;;;0.30;;
4186;SDS011;2107;52.306;10.484;2022-08-21T09:51:12;0.40;;;0.40;;
4186;SDS011;2107;52.306;10.484;2022-08-21T09:53:42;0.40;;;0.40;;
4186;SDS011;2107;52.306;10.484;2022-08-21T09:56:17;0.40;;;0.40;;
4186;SDS011;2107;52.306;10.484;2022-08-21T09:59:12;0.50;;;0.50;;
4186;SDS011;2107;52.306;10.484;2022-08-21T10:01:42;0.40;;;0.40;;
4186;SDS011;2107;52.306;10.484;2022-08-21T10:04:10;0.60;;;0.60;;
4186;SDS011;2107;52.306;10.484;2022-08-21T10:06:39;0.50;;;0.50;;
4186;SDS011;2107;52.306;10.484;2022-08-21T10:09:08;0.60;;;0.60;;
4186;SDS011;2107;52.306;10.484;2022-08-21T10:11:40;0.60;;;0.60;;
4186;SDS011;2107;52.306;10.484;2022-08-21T10:14:20;0.70;;;0.70;;
4186;SDS011;2107;52.306;10.484;2022-08-21T10:16:57;0.53;;;0.53;;
4186;SDS011;2107;52.306;10.484;2022-08-21T10:19:32;0.50;;;0.50;;
4186;SDS011;2107;52.306;10.484;2022-08-21T10:22:09;0.60;;;0.60;;
4186;SDS011;2107;52.306;10.484;2022-08-21T10:24:44;0.60;;;0.60;;
4186;SDS011;2107;52.306;10.484;2022-08-21T10:27:20;0.50;;;0.50;;
4186;SDS011;2107;52.306;10.484;2022-08-21T10:29:56;0.50;;;0.50;;
4186;SDS011;2107;52.306;10.484;2022-08-21T10:32:32;0.50;;;0.50;;
4186;SDS011;2107;52.306;10.484;2022-08-21T10:35:19;0.50;;;0.50;;
4186;SDS011;2107;52.306;10.484;2022-08-21T10:40:51;0.50;;;0.50;;
4186;SDS011;2107;52.306;10.484;2022-08-21T10:43:30;0.70;;;0.70;;
4186;SDS011;2107;52.306;10.484;2022-08-21T10:46:05;0.60;;;0.60;;
4186;SDS011;2107;52.306;10.484;2022-08-21T10:48:38;0.50;;;0.50;;
4186;SDS011;2107;52.306;10.484;2022-08-21T10:51:10;0.40;;;0.40;;
4186;SDS011;2107;52.306;10.484;2022-08-21T10:53:47;0.40;;;0.40;;
4186;SDS011;2107;52.306;10.484;2022-08-21T10:56:21;0.50;;;0.50;;
4186;SDS011;2107;52.306;10.484;2022-08-21T10:58:56;0.60;;;0.60;;
4186;SDS011;2107;52.306;10.484;2022-08-21T11:01:32;0.60;;;0.60;;
4186;SDS011;2107;52.306;10.484;2022-08-21T11:04:09;0.73;;;0.73;;
4186;SDS011;2107;52.306;10.484;2022-08-21T11:06:42;0.80;;;0.80;;
4186;SDS011;2107;52.306;10.484;2022-08-21T11:09:14;0.60;;;0.60;;
4186;SDS011;2107;52.306;10.484;2022-08-21T11:11:45;0.70;;;0.70;;
4186;SDS011;2107;52.306;10.484;2022-08-21T11:14:19;0.60;;;0.60;;
4186;SDS011;2107;52.306;10.484;2022-08-21T11:16:53;0.60;;;0.60;;
4186;SDS011;2107;52.306;10.484;2022-08-21T11:19:28;0.60;;;0.60;;
4186;SDS011;2107;52.306;10.484;2022-08-21T11:22:00;0.60;;;0.60;;
4186;SDS011;2107;52.306;10.484;2022-08-21T11:24:35;0.40;;;0.40;;
4186;SDS011;2107;52.306;10.484;2022-08-21T11:27:11;0.50;;;0.50;;
4186;SDS011;2107;52.306;10.484;2022-08-21T11:29:47;0.50;;;0.50;;
4186;SDS011;2107;52.306;10.484;2022-08-21T11:35:13;0.80;;;0.80;;
4186;SDS011;2107;52.306;10.484;2022-08-21T11:37:50;0.67;;;0.67;;
4186;SDS011;2107;52.306;10.484;2022-08-21T11:40:34;0.70;;;0.70;;
4186;SDS011;2107;52.306;10.484;2022-08-21T11:43:16;0.63;;;0.63;;
4186;SDS011;2107;52.306;10.484;2022-08-21T11:45:51;0.50;;;0.50;;
4186;SDS011;2107;52.306;10.484;2022-08-21T11:48:25;0.50;;;0.50;;
4186;SDS011;2107;52.306;10.484;2022-08-21T11:51:00;0.50;;;0.50;;
4186;SDS011;2107;52.306;10.484;2022-08-21T11:53:32;0.50;;;0.50;;
4186;SDS011;2107;52.306;10.484;2022-08-21T11:56:05;0.60;;;0.60;;
4186;SDS011;2107;52.306;10.484;2022-08-21T11:58:38;0.50;;;0.50;;
4186;SDS011;2107;52.306;10.484;2022-08-21T12:01:08;0.53;;;0.53;;
4186;SDS011;2107;52.306;10.484;2022-08-21T12:03:38;0.70;;;0.70;;
4186;SDS011;2107;52.306;10.484;2022-08-21T12:06:08;0.40;;;0.40;;
4186;SDS011;2107;52.306;10.484;2022-08-21T12:08:37;0.40;;;0.40;;
4186;SDS011;2107;52.306;10.484;2022-08-21T12:11:07;0.50;;;0.50;;
4186;SDS011;2107;52.306;10.484;2022-08-21T12:13:36;0.50;;;0.50;;
4186;SDS011;2107;52.306;10.484;2022-08-21T12:16:05;0.60;;;0.60;;
4186;SDS011;2107;52.306;10.484;2022-08-21T12:18:33;0.50;;;0.50;;
4186;SDS011;2107;52.306;10.484;2022-08-21T12:21:04;0.50;;;0.50;;
4186;SDS011;2107;52.306;10.484;2022-08-21T12:23:44;0.50;;;0.50;;
4186;SDS011;2107;52.306;10.484;2022-08-21T12:26:25;0.60;;;0.60;;
4186;SDS011;2107;52.306;10.484;2022-08-21T12:29:03;0.50;;;0.50;;
4186;SDS011;2107;52.306;10.484;2022-08-21T12:31:49;0.57;;;0.57;;
4186;SDS011;2107;52.306;10.484;2022-08-21T12:34:19;0.60;;;0.60;;
4186;SDS011;2107;52.306;10.484;2022-08-21T12:36:49;0.70;;;0.70;;
4186;SDS011;2107;52.306;10.484;2022-08-21T12:39:22;0.60;;;0.60;;
4186;SDS011;2107;52.306;10.484;2022-08-21T12:41:55;0.43;;;0.43;;
4186;SDS011;2107;52.306;10.484;2022-08-21T12:44:27;0.50;;;0.50;;
4186;SDS011;2107;52.306;10.484;2022-08-21T12:47:02;0.50;;;0.50;;
4186;SDS011;2107;52.306;10.484;2022-08-21T12:49:33;0.40;;;0.40;;
4186;SDS011;2107;52.306;10.484;2022-08-21T12:52:03;0.50;;;0.50;;
4186;SDS011;2107;52.306;10.484;2022-08-21T12:54:38;0.60;;;0.60;;
4186;SDS011;2107;52.306;10.484;2022-08-21T12:57:09;0.60;;;0.60;;
4186;SDS011;2107;52.306;10.484;2022-08-21T12:59:45;0.53;;;0.53;;
4186;SDS011;2107;52.306;10.484;2022-08-21T13:02:15;0.50;;;0.50;;
4186;SDS011;2107;52.306;10.484;2022-08-21T13:04:45;0.70;;;0.70;;
4186;SDS011;2107;52.306;10.484;2022-08-21T13:07:15;0.60;;;0.60;;
4186;SDS011;2107;52.306;10.484;2022-08-21T13:09:49;0.60;;;0.60;;
4186;SDS011;2107;52.306;10.484;2022-08-21T13:12:20;0.60;;;0.60;;
4186;SDS011;2107;52.306;10.484;2022-08-21T13:14:49;0.60;;;0.60;;
4186;SDS011;2107;52.306;10.484;2022-08-21T13:17:18;0.50;;;0.50;;
4186;SDS011;2107;52.306;10.484;2022-08-21T13:19:52;0.60;;;0.60;;
4186;SDS011;2107;52.306;10.484;2022-08-21T13:22:21;0.60;;;0.60;;
4186;SDS011;2107;52.306;10.484;2022-08-21T13:24:49;0.60;;;0.60;;
4186;SDS011;2107;52.306;10.484;2022-08-21T13:27:17;0.67;;;0.67;;
4186;SDS011;2107;52.306;10.484;2022-08-21T13:29:47;0.80;;;0.80;;
4186;SDS011;2107;52.306;10.484;2022-08-21T13:32:18;0.70;;;0.70;;
4186;SDS011;2107;52.306;10.484;2022-08-21T13:34:48;0.70;;;0.70;;
4186;SDS011;2107;52.306;10.484;2022-08-21T13:37:16;0.50;;;0.50;;
4186;SDS011;2107;52.306;10.484;2022-08-21T13:39:48;0.80;;;0.80;;
4186;SDS011;2107;52.306;10.484;2022-08-21T13:42:16;0.63;;;0.63;;
4186;SDS011;2107;52.306;10.484;2022-08-21T13:44:46;0.57;;;0.57;;
4186;SDS011;2107;52.306;10.484;2022-08-21T13:47:14;0.60;;;0.60;;
4186;SDS011;2107;52.306;10.484;2022-08-21T13:49:43;0.70;;;0.70;;
4186;SDS011;2107;52.306;10.484;2022-08-21T13:52:16;0.70;;;0.70;;
4186;SDS011;2107;52.306;10.484;2022-08-21T13:54:52;0.90;;;0.90;;
4186;SDS011;2107;52.306;10.484;2022-08-21T13:57:24;0.80;;;0.80;;
4186;SDS011;2107;52.306;10.484;2022-08-21T14:02:47;0.77;;;0.77;;
4186;SDS011;2107;52.306;10.484;2022-08-21T14:05:22;0.80;;;0.80;;
4186;SDS011;2107;52.306;10.484;2022-08-21T14:07:56;0.80;;;0.80;;
4186;SDS011;2107;52.306;10.484;2022-08-21T14:10:28;0.70;;;0.70;;
4186;SDS011;2107;52.306;10.484;2022-08-21T14:12:56;0.50;;;0.50;;
4186;SDS011;2107;52.306;10.484;2022-08-21T14:15:25;0.60;;;0.60;;
4186;SDS011;2107;52.306;10.484;2022-08-21T14:17:57;0.88;;;0.88;;
4186;SDS011;2107;52.306;10.484;2022-08-21T14:20:35;0.98;;;0.98;;
4186;SDS011;2107;52.306;10.484;2022-08-21T14:23:03;0.90;;;0.90;;
4186;SDS011;2107;52.306;10.484;2022-08-21T14:25:36;1.00;;;1.00;;
4186;SDS011;2107;52.306;10.484;2022-08-21T14:28:08;0.80;;;0.80;;
4186;SDS011;2107;52.306;10.484;2022-08-21T14:30:42;0.93;;;0.93;;
4186;SDS011;2107;52.306;10.484;2022-08-21T14:33:12;0.73;;;0.73;;
4186;SDS011;2107;52.306;10.484;2022-08-21T14:35:43;0.70;;;0.70;;
4186;SDS011;2107;52.306;10.484;2022-08-21T14:38:13;0.70;;;0.70;;
4186;SDS011;2107;52.306;10.484;2022-08-21T14:40:41;0.60;;;0.60;;
4186;SDS011;2107;52.306;10.484;2022-08-21T14:43:09;0.40;;;0.40;;
4186;SDS011;2107;52.306;10.484;2022-08-21T14:45:36;0.65;;;0.65;;
4186;SDS011;2107;52.306;10.484;2022-08-21T14:48:05;0.70;;;0.70;;
4186;SDS011;2107;52.306;10.484;2022-08-21T14:50:35;0.93;;;0.93;;
4186;SDS011;2107;52.306;10.484;2022-08-21T14:53:02;0.80;;;0.80;;
4186;SDS011;2107;52.306;10.484;2022-08-21T14:55:30;0.90;;;0.90;;
4186;SDS011;2107;52.306;10.484;2022-08-21T14:58:19;0.90;;;0.90;;
4186;SDS011;2107;52.306;10.484;2022-08-21T15:00:47;0.80;;;0.80;;
4186;SDS011;2107;52.306;10.484;2022-08-21T15:03:14;0.90;;;0.90;;
4186;SDS011;2107;52.306;10.484;2022-08-21T15:05:42;0.80;;;0.80;;
4186;SDS011;2107;52.306;10.484;2022-08-21T15:08:09;1.00;;;1.00;;
4186;SDS011;2107;52.306;10.484;2022-08-21T15:10:36;1.00;;;1.00;;
4186;SDS011;2107;52.306;10.484;2022-08-21T15:13:03;1.00;;;1.00;;
4186;SDS011;2107;52.306;10.484;2022-08-21T15:15:32;0.90;;;0.90;;
4186;SDS011;2107;52.306;10.484;2022-08-21T15:18:05;1.00;;;1.00;;
4186;SDS011;2107;52.306;10.484;2022-08-21T15:20:32;0.80;;;0.80;;
4186;SDS011;2107;52.306;10.484;2022-08-21T15:23:00;0.80;;;0.80;;
4186;SDS011;2107;52.306;10.484;2022-08-21T15:25:27;0.82;;;0.82;;